Time;durP1;ratioP1;P1;durP2;ratioP2;P2;SDS_P1;SDS_P2;PMS_P1;PMS_P2;Temp;Humidity;BMP_temperature;BMP_pressure;BME280_temperature;BME280_humidity;BME280_pressure;Samples;Min_cycle;Max_cycle;Signal;HPM_P1;HPM_P2
2023/08/13 00:00:16;;;;;;;3.55;3.25;;;;;;;;;;5099483;28;20264;-63
2023/08/13 00:02:45;;;;;;;5.15;3.63;;;;;;;;;;5099704;28;20192;-63
2023/08/13 00:05:13;;;;;;;5.28;3.78;;;;;;;;;;5099363;28;20204;-63
2023/08/13 00:07:41;;;;;;;5.97;3.40;;;;;;;;;;5099622;28;20204;-63
2023/08/13 00:10:09;;;;;;;4.90;3.10;;;;;;;;;;5099017;28;20204;-63
2023/08/13 00:12:37;;;;;;;3.88;3.00;;;;;;;;;;5099268;28;20596;-64
2023/08/13 00:15:05;;;;;;;5.03;2.90;;;;;;;;;;5099634;28;20226;-63
2023/08/13 00:17:32;;;;;;;5.60;3.08;;;;;;;;;;5099355;28;20253;-63
2023/08/13 00:20:02;;;;;;;5.13;3.00;;;;;;;;;;5099404;28;20269;-63
2023/08/13 00:22:31;;;;;;;4.13;3.20;;;;;;;;;;5099273;28;20225;-63
2023/08/13 00:24:58;;;;;;;5.05;2.85;;;;;;;;;;5099639;28;20215;-63
2023/08/13 00:27:26;;;;;;;3.75;2.70;;;;;;;;;;5099521;28;20203;-63
2023/08/13 00:29:53;;;;;;;3.78;2.92;;;;;;;;;;5099081;28;20595;-63
2023/08/13 00:32:21;;;;;;;3.70;2.70;;;;;;;;;;5098834;28;20224;-63
2023/08/13 00:34:48;;;;;;;4.60;2.75;;;;;;;;;;5099518;28;20215;-63
2023/08/13 00:37:17;;;;;;;4.40;2.85;;;;;;;;;;5099693;28;20503;-62
2023/08/13 00:39:45;;;;;;;2.78;2.47;;;;;;;;;;5098390;28;20652;-63
2023/08/13 00:42:13;;;;;;;3.42;2.60;;;;;;;;;;5099345;28;20211;-63
2023/08/13 00:44:40;;;;;;;2.67;2.47;;;;;;;;;;5099173;28;20215;-63
2023/08/13 00:47:08;;;;;;;2.65;2.45;;;;;;;;;;5098758;28;20298;-63
2023/08/13 00:49:35;;;;;;;2.97;2.25;;;;;;;;;;5099320;28;20204;-63
2023/08/13 00:52:03;;;;;;;4.28;2.55;;;;;;;;;;5098806;28;20232;-63
2023/08/13 00:54:32;;;;;;;3.13;2.40;;;;;;;;;;5099095;28;20226;-63
2023/08/13 00:57:00;;;;;;;2.88;2.28;;;;;;;;;;5098630;28;20598;-63
2023/08/13 00:59:28;;;;;;;2.92;2.28;;;;;;;;;;5098004;28;20204;-63
2023/08/13 01:01:56;;;;;;;4.03;2.45;;;;;;;;;;5098524;28;20199;-63
2023/08/13 01:04:24;;;;;;;3.92;2.50;;;;;;;;;;5098927;28;20302;-63
2023/08/13 01:06:59;;;;;;;5.40;2.60;;;;;;;;;;5098525;28;20210;-63
2023/08/13 01:09:31;;;;;;;2.97;2.40;;;;;;;;;;5098756;28;20288;-63
2023/08/13 01:12:03;;;;;;;3.00;2.53;;;;;;;;;;5098360;28;20243;-63
2023/08/13 01:14:34;;;;;;;4.60;2.70;;;;;;;;;;5097786;28;20212;-63
2023/08/13 01:17:04;;;;;;;2.92;2.35;;;;;;;;;;5098101;28;20227;-63
2023/08/13 01:19:32;;;;;;;2.42;2.20;;;;;;;;;;5097720;28;20555;-63
2023/08/13 01:22:00;;;;;;;3.25;2.35;;;;;;;;;;5098673;28;20208;-63
2023/08/13 01:24:29;;;;;;;4.50;2.50;;;;;;;;;;5098642;28;20603;-63
2023/08/13 01:27:06;;;;;;;2.55;2.30;;;;;;;;;;5098241;28;20203;-63
2023/08/13 01:29:44;;;;;;;2.75;2.30;;;;;;;;;;5098431;28;20203;-63
2023/08/13 01:32:13;;;;;;;3.08;2.25;;;;;;;;;;5097775;28;20653;-62
2023/08/13 01:34:41;;;;;;;2.10;1.92;;;;;;;;;;5098107;28;20241;-63
2023/08/13 01:37:09;;;;;;;2.72;2.28;;;;;;;;;;5098300;28;20294;-63
2023/08/13 01:39:39;;;;;;;2.72;2.47;;;;;;;;;;5098650;28;20204;-63
2023/08/13 01:42:10;;;;;;;3.15;2.47;;;;;;;;;;5098044;28;20485;-63
2023/08/13 01:44:37;;;;;;;2.83;2.17;;;;;;;;;;5097806;28;20212;-63
2023/08/13 01:47:05;;;;;;;2.40;2.20;;;;;;;;;;5097964;28;20211;-63
2023/08/13 01:49:33;;;;;;;2.83;2.47;;;;;;;;;;5097833;28;20196;-63
2023/08/13 01:52:01;;;;;;;2.85;2.28;;;;;;;;;;5097973;28;20306;-63
2023/08/13 01:54:28;;;;;;;2.40;2.03;;;;;;;;;;5098132;28;20203;-63
2023/08/13 01:56:58;;;;;;;2.25;2.05;;;;;;;;;;5097207;28;20479;-63
2023/08/13 01:59:25;;;;;;;1.95;1.85;;;;;;;;;;5097777;28;20214;-63
2023/08/13 02:01:53;;;;;;;2.65;2.13;;;;;;;;;;5097615;28;20211;-63
2023/08/13 02:04:21;;;;;;;2.58;2.00;;;;;;;;;;5098313;28;20211;-63
2023/08/13 02:06:48;;;;;;;2.97;2.28;;;;;;;;;;5097993;28;20302;-63
2023/08/13 02:09:16;;;;;;;2.42;2.22;;;;;;;;;;5097520;28;20575;-63
2023/08/13 02:11:44;;;;;;;2.10;1.90;;;;;;;;;;5097724;28;20310;-63
2023/08/13 02:14:13;;;;;;;2.67;1.90;;;;;;;;;;5097685;28;20641;-63
2023/08/13 02:16:41;;;;;;;2.83;2.00;;;;;;;;;;5097590;28;20207;-62
2023/08/13 02:19:08;;;;;;;2.15;2.00;;;;;;;;;;5097847;28;20210;-63
2023/08/13 02:21:36;;;;;;;2.60;1.90;;;;;;;;;;5097726;28;20206;-63
2023/08/13 02:24:03;;;;;;;2.10;2.00;;;;;;;;;;5097609;28;20583;-63
2023/08/13 02:26:31;;;;;;;2.83;2.20;;;;;;;;;;5096945;28;20289;-63
2023/08/13 02:28:59;;;;;;;2.28;2.08;;;;;;;;;;5097491;28;20261;-63
2023/08/13 02:31:28;;;;;;;2.38;2.17;;;;;;;;;;5097001;28;20231;-63
2023/08/13 02:33:56;;;;;;;1.83;1.73;;;;;;;;;;5096738;28;20610;-63
2023/08/13 02:36:23;;;;;;;3.95;2.10;;;;;;;;;;5097257;28;20199;-63
2023/08/13 02:38:51;;;;;;;2.08;1.88;;;;;;;;;;5097504;28;20222;-63
2023/08/13 02:41:19;;;;;;;2.10;1.90;;;;;;;;;;5096919;28;20210;-63
2023/08/13 02:43:52;;;;;;;2.38;1.90;;;;;;;;;;5097582;28;20212;-63
2023/08/13 02:46:20;;;;;;;2.03;1.88;;;;;;;;;;5096834;28;20203;-63
2023/08/13 02:48:49;;;;;;;2.55;1.92;;;;;;;;;;5097202;28;20579;-63
2023/08/13 02:51:17;;;;;;;2.38;1.85;;;;;;;;;;5096779;28;20227;-63
2023/08/13 02:53:45;;;;;;;2.63;1.92;;;;;;;;;;5097150;28;20304;-63
2023/08/13 02:56:12;;;;;;;2.28;2.10;;;;;;;;;;5096909;28;20208;-63
2023/08/13 02:58:40;;;;;;;2.28;1.90;;;;;;;;;;5097786;28;20294;-63
2023/08/13 03:01:08;;;;;;;2.70;2.05;;;;;;;;;;5097559;28;20203;-63
2023/08/13 03:03:35;;;;;;;2.15;1.85;;;;;;;;;;5096961;28;20272;-63
2023/08/13 03:06:04;;;;;;;2.20;1.90;;;;;;;;;;5097294;28;20563;-63
2023/08/13 03:08:32;;;;;;;1.80;1.70;;;;;;;;;;5097859;28;20208;-63
2023/08/13 03:11:00;;;;;;;1.80;1.70;;;;;;;;;;5101070;28;20207;-63
2023/08/13 03:13:27;;;;;;;1.83;1.73;;;;;;;;;;5100714;28;20268;-63
2023/08/13 03:15:55;;;;;;;2.53;1.70;;;;;;;;;;5100816;28;20203;-63
2023/08/13 03:18:23;;;;;;;1.95;1.85;;;;;;;;;;5100860;28;20208;-63
2023/08/13 03:20:50;;;;;;;2.33;1.80;;;;;;;;;;5101088;28;20577;-63
2023/08/13 03:23:19;;;;;;;1.83;1.73;;;;;;;;;;5100908;28;20246;-63
2023/08/13 03:25:47;;;;;;;2.25;1.90;;;;;;;;;;5101078;28;20204;-63
2023/08/13 03:28:15;;;;;;;3.35;1.88;;;;;;;;;;5100875;28;20204;-63
2023/08/13 03:30:42;;;;;;;2.20;2.00;;;;;;;;;;5100530;28;20207;-63
2023/08/13 03:33:10;;;;;;;2.10;1.90;;;;;;;;;;5100641;28;20239;-63
2023/08/13 03:35:38;;;;;;;1.73;1.60;;;;;;;;;;5100608;28;20211;-63
2023/08/13 03:38:06;;;;;;;1.60;1.50;;;;;;;;;;5100661;28;20204;-63
2023/08/13 03:40:35;;;;;;;2.20;1.65;;;;;;;;;;5100870;28;20214;-63
2023/08/13 03:43:02;;;;;;;2.40;1.70;;;;;;;;;;5100519;28;20211;-63
2023/08/13 03:45:31;;;;;;;1.60;1.50;;;;;;;;;;5100219;28;20235;-63
2023/08/13 03:47:58;;;;;;;1.95;1.73;;;;;;;;;;5099918;28;20583;-63
2023/08/13 03:50:26;;;;;;;2.88;1.70;;;;;;;;;;5100453;28;20269;-63
2023/08/13 03:52:54;;;;;;;2.33;1.80;;;;;;;;;;5099743;28;20243;-63
2023/08/13 03:55:21;;;;;;;2.10;1.60;;;;;;;;;;5100093;28;20199;-63
2023/08/13 03:57:52;;;;;;;1.80;1.70;;;;;;;;;;5100093;28;20568;-63
2023/08/13 04:00:20;;;;;;;1.80;1.70;;;;;;;;;;5100069;28;20538;-63
2023/08/13 04:02:50;;;;;;;1.75;1.52;;;;;;;;;;5099911;28;20208;-63
2023/08/13 04:05:17;;;;;;;2.08;1.40;;;;;;;;;;5100243;28;20204;-63
2023/08/13 04:07:45;;;;;;;1.40;1.30;;;;;;;;;;5099487;28;20204;-63
2023/08/13 04:10:12;;;;;;;2.17;1.60;;;;;;;;;;5100185;28;20492;-63
2023/08/13 04:12:39;;;;;;;1.70;1.60;;;;;;;;;;5099824;28;20273;-63
2023/08/13 04:15:09;;;;;;;1.50;1.40;;;;;;;;;;5099647;28;20259;-63
2023/08/13 04:17:37;;;;;;;1.65;1.40;;;;;;;;;;5099489;28;20239;-63
2023/08/13 04:20:05;;;;;;;1.52;1.42;;;;;;;;;;5097723;28;20235;-63
2023/08/13 04:22:32;;;;;;;2.40;1.52;;;;;;;;;;5099461;28;20311;-63
2023/08/13 04:24:59;;;;;;;1.55;1.45;;;;;;;;;;5099717;28;20210;-63
2023/08/13 04:27:27;;;;;;;1.60;1.50;;;;;;;;;;5099764;28;20293;-63
2023/08/13 04:29:54;;;;;;;1.65;1.50;;;;;;;;;;5099503;28;20294;-63
2023/08/13 04:32:23;;;;;;;1.70;1.60;;;;;;;;;;5099136;28;20619;-63
2023/08/13 04:34:51;;;;;;;2.42;1.60;;;;;;;;;;5099250;28;20212;-63
2023/08/13 04:37:18;;;;;;;1.70;1.60;;;;;;;;;;5099335;28;20575;-63
2023/08/13 04:39:46;;;;;;;2.08;1.83;;;;;;;;;;5099499;28;20298;-63
2023/08/13 04:42:13;;;;;;;1.80;1.70;;;;;;;;;;5098871;28;20257;-63
2023/08/13 04:44:41;;;;;;;1.85;1.70;;;;;;;;;;5098559;28;20295;-63
2023/08/13 04:47:08;;;;;;;1.90;1.70;;;;;;;;;;5099151;28;20507;-63
2023/08/13 04:49:37;;;;;;;1.45;1.33;;;;;;;;;;5098856;28;20239;-63
2023/08/13 04:52:04;;;;;;;1.63;1.52;;;;;;;;;;5098983;28;20322;-63
2023/08/13 04:54:32;;;;;;;2.45;1.92;;;;;;;;;;5099216;28;20243;-63
2023/08/13 04:56:59;;;;;;;2.05;1.95;;;;;;;;;;5098612;28;20214;-63
2023/08/13 04:59:27;;;;;;;1.67;1.58;;;;;;;;;;5099166;28;20298;-63
2023/08/13 05:01:54;;;;;;;2.20;1.88;;;;;;;;;;5098697;28;20614;-63
2023/08/13 05:04:22;;;;;;;2.28;2.10;;;;;;;;;;5098675;28;20563;-63
2023/08/13 05:06:51;;;;;;;2.10;2.00;;;;;;;;;;5098805;28;20214;-63
2023/08/13 05:09:18;;;;;;;2.42;1.98;;;;;;;;;;5098840;28;20204;-63
2023/08/13 05:11:46;;;;;;;2.15;2.00;;;;;;;;;;5098676;28;20813;-63
2023/08/13 05:14:13;;;;;;;2.15;2.05;;;;;;;;;;5098705;28;20318;-63
2023/08/13 05:16:41;;;;;;;1.90;1.80;;;;;;;;;;5098418;28;20571;-63
2023/08/13 05:19:08;;;;;;;2.47;2.28;;;;;;;;;;5098533;28;20551;-63
2023/08/13 05:21:36;;;;;;;2.15;1.98;;;;;;;;;;5098694;28;20203;-63
2023/08/13 05:24:05;;;;;;;2.42;2.22;;;;;;;;;;5098373;28;20207;-63
2023/08/13 05:26:33;;;;;;;2.97;2.10;;;;;;;;;;5097547;28;20294;-63
2023/08/13 05:29:00;;;;;;;4.22;2.63;;;;;;;;;;5098056;28;20203;-63
2023/08/13 05:31:28;;;;;;;2.85;2.20;;;;;;;;;;5098113;28;20214;-63
2023/08/13 05:33:57;;;;;;;2.25;2.10;;;;;;;;;;5097975;28;20227;-62
2023/08/13 05:36:25;;;;;;;2.22;2.13;;;;;;;;;;5098397;28;20269;-63
2023/08/13 05:38:52;;;;;;;2.13;2.03;;;;;;;;;;5098206;28;20243;-63
2023/08/13 05:41:21;;;;;;;1.85;1.75;;;;;;;;;;5098441;28;20300;-63
2023/08/13 05:43:48;;;;;;;2.60;2.20;;;;;;;;;;5097710;28;20230;-63
2023/08/13 05:46:16;;;;;;;2.13;2.03;;;;;;;;;;5097984;28;20204;-63
2023/08/13 05:48:43;;;;;;;2.65;2.33;;;;;;;;;;5097713;28;20254;-63
2023/08/13 05:51:11;;;;;;;2.67;2.40;;;;;;;;;;5098201;28;20307;-63
2023/08/13 05:53:38;;;;;;;2.60;2.40;;;;;;;;;;5097990;28;20232;-63
2023/08/13 05:56:05;;;;;;;2.55;2.38;;;;;;;;;;5098153;28;20214;-64
2023/08/13 05:58:34;;;;;;;2.40;2.15;;;;;;;;;;5097379;28;20203;-63
2023/08/13 06:01:03;;;;;;;2.70;2.50;;;;;;;;;;5097897;28;20204;-63
2023/08/13 06:03:30;;;;;;;2.78;2.58;;;;;;;;;;5098324;28;20211;-63
2023/08/13 06:05:58;;;;;;;3.30;2.60;;;;;;;;;;5097841;28;20295;-63
2023/08/13 06:08:25;;;;;;;2.90;2.70;;;;;;;;;;5097742;28;20311;-63
2023/08/13 06:10:53;;;;;;;2.92;2.72;;;;;;;;;;5097255;28;20246;-63
2023/08/13 06:13:20;;;;;;;3.40;3.10;;;;;;;;;;5097706;28;20273;-63
2023/08/13 06:15:49;;;;;;;3.42;3.13;;;;;;;;;;5097208;28;20203;-63
2023/08/13 06:18:17;;;;;;;3.08;2.88;;;;;;;;;;5096990;28;20298;-63
2023/08/13 06:20:44;;;;;;;3.30;3.00;;;;;;;;;;5097544;28;20203;-63
2023/08/13 06:23:12;;;;;;;3.25;3.00;;;;;;;;;;5097402;28;20235;-63
2023/08/13 06:25:40;;;;;;;3.65;3.30;;;;;;;;;;5097258;28;20254;-63
2023/08/13 06:28:08;;;;;;;3.33;3.03;;;;;;;;;;5097120;28;20214;-63
2023/08/13 06:30:36;;;;;;;3.05;2.85;;;;;;;;;;5097401;28;20311;-63
2023/08/13 06:33:05;;;;;;;3.47;3.17;;;;;;;;;;5097147;28;20318;-63
2023/08/13 06:35:32;;;;;;;3.22;3.03;;;;;;;;;;5097341;28;20268;-63
2023/08/13 06:38:00;;;;;;;3.17;2.97;;;;;;;;;;5097211;28;20315;-63
2023/08/13 06:40:27;;;;;;;3.72;3.40;;;;;;;;;;5097534;28;20210;-63
2023/08/13 06:42:54;;;;;;;3.08;2.88;;;;;;;;;;5097268;28;20204;-63
2023/08/13 06:45:26;;;;;;;3.22;3.03;;;;;;;;;;5101060;28;20290;-63
2023/08/13 06:47:53;;;;;;;3.47;3.17;;;;;;;;;;5101360;28;20215;-63
2023/08/13 06:50:22;;;;;;;3.42;3.13;;;;;;;;;;5101139;28;20546;-63
2023/08/13 06:52:49;;;;;;;3.92;3.63;;;;;;;;;;5100628;28;20278;-63
2023/08/13 06:55:17;;;;;;;3.92;3.63;;;;;;;;;;5101116;28;20247;-63
2023/08/13 06:57:46;;;;;;;4.03;3.72;;;;;;;;;;5100317;28;20211;-63
2023/08/13 07:00:15;;;;;;;3.63;3.42;;;;;;;;;;5101260;28;20533;-63
2023/08/13 07:02:42;;;;;;;4.30;3.90;;;;;;;;;;5100795;28;20215;-63
2023/08/13 07:05:11;;;;;;;3.53;3.33;;;;;;;;;;5100701;28;20253;-63
2023/08/13 07:07:41;;;;;;;3.85;3.55;;;;;;;;;;5100981;28;20210;-63
2023/08/13 07:10:08;;;;;;;4.20;3.90;;;;;;;;;;5100849;28;20211;-62
2023/08/13 07:12:36;;;;;;;3.92;3.60;;;;;;;;;;5100428;28;20227;-63
2023/08/13 07:15:04;;;;;;;4.28;3.97;;;;;;;;;;5100219;28;20204;-63
2023/08/13 07:17:32;;;;;;;4.05;3.75;;;;;;;;;;5100639;28;20199;-63
2023/08/13 07:19:59;;;;;;;3.67;3.38;;;;;;;;;;5100268;28;20204;-63
2023/08/13 07:22:27;;;;;;;4.30;4.00;;;;;;;;;;5100131;28;20235;-63
2023/08/13 07:24:56;;;;;;;4.35;3.95;;;;;;;;;;5099847;28;20265;-63
2023/08/13 07:27:24;;;;;;;4.50;4.10;;;;;;;;;;5099940;28;20329;-63
2023/08/13 07:29:52;;;;;;;4.25;3.95;;;;;;;;;;5100264;28;20204;-63
2023/08/13 07:32:19;;;;;;;4.35;3.88;;;;;;;;;;5099597;28;20215;-63
2023/08/13 07:34:47;;;;;;;4.25;3.85;;;;;;;;;;5100161;28;20494;-63
2023/08/13 07:37:14;;;;;;;6.72;4.63;;;;;;;;;;5100576;28;20264;-63
2023/08/13 07:39:41;;;;;;;4.43;4.13;;;;;;;;;;5099876;28;20239;-62
2023/08/13 07:42:10;;;;;;;4.10;3.80;;;;;;;;;;5100220;28;20240;-62
2023/08/13 07:44:38;;;;;;;4.18;3.78;;;;;;;;;;5099985;28;20282;-63
2023/08/13 07:47:06;;;;;;;4.00;3.70;;;;;;;;;;5099048;28;20203;-64
2023/08/13 07:49:33;;;;;;;4.30;4.00;;;;;;;;;;5099601;28;20257;-63
2023/08/13 07:52:00;;;;;;;4.07;3.78;;;;;;;;;;5099065;28;20231;-63
2023/08/13 07:54:28;;;;;;;3.97;3.70;;;;;;;;;;5099242;28;20227;-63
2023/08/13 07:56:56;;;;;;;3.40;3.20;;;;;;;;;;5099274;28;20223;-62
2023/08/13 07:59:24;;;;;;;3.45;3.15;;;;;;;;;;5099178;28;20286;-63
2023/08/13 08:01:52;;;;;;;3.60;3.28;;;;;;;;;;5099107;28;20294;-63
2023/08/13 08:04:19;;;;;;;3.80;3.50;;;;;;;;;;5099227;28;20614;-63
2023/08/13 08:06:47;;;;;;;3.85;3.53;;;;;;;;;;5099471;28;20666;-63
2023/08/13 08:09:14;;;;;;;4.00;3.65;;;;;;;;;;5099727;28;20204;-63
2023/08/13 08:11:41;;;;;;;4.40;4.10;;;;;;;;;;5098699;28;20302;-62
2023/08/13 08:14:09;;;;;;;4.50;4.20;;;;;;;;;;5098996;28;20318;-62
2023/08/13 08:16:38;;;;;;;4.72;4.43;;;;;;;;;;5098890;28;20239;-62
2023/08/13 08:19:05;;;;;;;4.22;3.92;;;;;;;;;;5098899;28;20582;-62
2023/08/13 08:21:33;;;;;;;4.43;4.03;;;;;;;;;;5099345;28;20242;-63
2023/08/13 08:24:02;;;;;;;4.38;4.07;;;;;;;;;;5098971;28;20280;-62
2023/08/13 08:26:30;;;;;;;4.20;3.80;;;;;;;;;;5099147;28;20208;-63
2023/08/13 08:28:58;;;;;;;3.88;3.58;;;;;;;;;;5099258;28;20243;-63
2023/08/13 08:31:25;;;;;;;3.88;3.58;;;;;;;;;;5098625;28;20235;-63
2023/08/13 08:33:54;;;;;;;3.88;3.58;;;;;;;;;;5098476;28;20230;-62
2023/08/13 08:36:21;;;;;;;3.92;3.63;;;;;;;;;;5098323;28;20210;-63
2023/08/13 08:38:49;;;;;;;4.13;3.78;;;;;;;;;;5098223;28;20210;-64
2023/08/13 08:41:16;;;;;;;4.20;3.83;;;;;;;;;;5097786;28;20291;-63
2023/08/13 08:43:44;;;;;;;4.40;4.10;;;;;;;;;;5098660;28;20877;-63
2023/08/13 08:46:13;;;;;;;4.07;3.78;;;;;;;;;;5098528;28;20478;-63
2023/08/13 08:48:41;;;;;;;4.28;3.97;;;;;;;;;;5097980;28;20310;-63
2023/08/13 08:51:10;;;;;;;4.15;3.85;;;;;;;;;;5097720;28;20222;-63
2023/08/13 08:53:37;;;;;;;4.30;4.00;;;;;;;;;;5098270;28;20287;-63
2023/08/13 08:56:05;;;;;;;4.20;3.90;;;;;;;;;;5098196;28;20204;-63
2023/08/13 08:58:32;;;;;;;4.38;4.07;;;;;;;;;;5097832;28;20294;-62
2023/08/13 09:01:00;;;;;;;4.28;3.97;;;;;;;;;;5098279;28;20267;-63
2023/08/13 09:03:28;;;;;;;4.20;3.90;;;;;;;;;;5098274;28;20204;-63
2023/08/13 09:05:56;;;;;;;4.43;4.05;;;;;;;;;;5097625;28;20207;-62
2023/08/13 09:08:24;;;;;;;4.80;4.00;;;;;;;;;;5097917;28;20253;-62
2023/08/13 09:10:52;;;;;;;3.85;3.55;;;;;;;;;;5098120;28;20290;-63
2023/08/13 09:13:19;;;;;;;3.83;3.60;;;;;;;;;;5097294;28;20231;-62
2023/08/13 09:15:49;;;;;;;3.88;3.58;;;;;;;;;;5097969;28;20316;-62
2023/08/13 09:18:17;;;;;;;4.03;3.72;;;;;;;;;;5097287;28;20239;-62
2023/08/13 09:20:45;;;;;;;3.47;3.17;;;;;;;;;;5097716;28;20239;-63
2023/08/13 09:23:12;;;;;;;3.53;3.15;;;;;;;;;;5097265;28;20195;-63
2023/08/13 09:25:41;;;;;;;3.33;3.00;;;;;;;;;;5096141;28;20203;-62
2023/08/13 09:28:09;;;;;;;3.30;3.10;;;;;;;;;;5097219;28;20218;-63
2023/08/13 09:30:36;;;;;;;3.13;2.92;;;;;;;;;;5097246;28;20204;-62
2023/08/13 09:33:04;;;;;;;3.40;3.10;;;;;;;;;;5096953;28;20203;-63
2023/08/13 09:35:31;;;;;;;3.20;3.00;;;;;;;;;;5096463;28;20213;-63
2023/08/13 09:37:58;;;;;;;3.05;2.72;;;;;;;;;;5097081;28;20202;-63
2023/08/13 09:40:26;;;;;;;3.13;2.90;;;;;;;;;;5096639;28;20723;-62
2023/08/13 09:42:57;;;;;;;2.72;2.53;;;;;;;;;;5096608;28;20214;-62
2023/08/13 09:45:26;;;;;;;2.83;2.63;;;;;;;;;;5096313;28;20214;-62
2023/08/13 09:47:55;;;;;;;2.95;2.75;;;;;;;;;;5096707;28;20196;-62
2023/08/13 09:50:23;;;;;;;2.92;2.70;;;;;;;;;;5096682;28;20290;-63
2023/08/13 09:52:51;;;;;;;3.03;2.72;;;;;;;;;;5096092;28;20339;-63
2023/08/13 09:55:22;;;;;;;2.70;2.50;;;;;;;;;;5096888;28;20230;-62
2023/08/13 09:57:50;;;;;;;2.72;2.53;;;;;;;;;;5096725;28;20215;-62
2023/08/13 10:00:19;;;;;;;2.75;2.55;;;;;;;;;;5097030;28;20268;-62
2023/08/13 10:02:48;;;;;;;3.08;2.85;;;;;;;;;;5097315;28;20288;-63
2023/08/13 10:05:16;;;;;;;3.00;2.80;;;;;;;;;;5097442;28;20243;-63
2023/08/13 10:07:45;;;;;;;2.60;2.42;;;;;;;;;;5096775;28;20204;-62
2023/08/13 10:10:12;;;;;;;2.78;2.50;;;;;;;;;;5096822;28;20239;-62
2023/08/13 10:12:40;;;;;;;2.72;2.53;;;;;;;;;;5096732;28;20235;-62
2023/08/13 10:15:09;;;;;;;2.67;2.50;;;;;;;;;;5096177;28;20223;-63
2023/08/13 10:17:38;;;;;;;2.88;2.67;;;;;;;;;;5096635;28;20211;-63
2023/08/13 10:20:06;;;;;;;2.45;2.30;;;;;;;;;;5096411;28;20282;-63
2023/08/13 10:22:35;;;;;;;2.60;2.40;;;;;;;;;;5096668;28;20602;-63
2023/08/13 10:25:06;;;;;;;2.58;2.38;;;;;;;;;;5096678;28;20211;-63
2023/08/13 10:27:36;;;;;;;2.65;2.45;;;;;;;;;;5096453;28;20262;-63
2023/08/13 10:30:11;;;;;;;2.58;2.25;;;;;;;;;;5096742;28;20204;-62
2023/08/13 10:32:49;;;;;;;2.75;2.58;;;;;;;;;;5095951;28;20673;-62
2023/08/13 10:35:23;;;;;;;2.47;2.38;;;;;;;;;;5096519;28;20298;-63
2023/08/13 10:37:52;;;;;;;2.40;2.25;;;;;;;;;;5096297;28;20280;-63
2023/08/13 10:40:19;;;;;;;2.50;2.30;;;;;;;;;;5096455;28;20294;-63
2023/08/13 10:42:50;;;;;;;2.28;2.15;;;;;;;;;;5096590;28;20543;-63
2023/08/13 10:45:19;;;;;;;2.53;2.30;;;;;;;;;;5096784;28;20200;-62
2023/08/13 10:47:48;;;;;;;2.58;2.38;;;;;;;;;;5096169;28;20212;-62
2023/08/13 10:50:17;;;;;;;2.42;2.30;;;;;;;;;;5096468;28;20228;-62
2023/08/13 10:52:47;;;;;;;2.42;2.22;;;;;;;;;;5096396;28;20239;-62
2023/08/13 10:55:18;;;;;;;2.63;2.42;;;;;;;;;;5096266;28;20315;-62
2023/08/13 10:57:50;;;;;;;2.22;2.13;;;;;;;;;;5096591;28;20566;-63
2023/08/13 11:00:17;;;;;;;2.75;2.55;;;;;;;;;;5096780;28;20206;-63
2023/08/13 11:02:45;;;;;;;3.00;2.80;;;;;;;;;;5095228;28;20238;-63
2023/08/13 11:05:14;;;;;;;2.47;2.28;;;;;;;;;;5095616;28;20239;-63
2023/08/13 11:07:44;;;;;;;2.90;2.65;;;;;;;;;;5096431;28;20310;-63
2023/08/13 11:10:16;;;;;;;2.75;2.55;;;;;;;;;;5096326;28;20675;-63
2023/08/13 11:12:43;;;;;;;2.80;2.60;;;;;;;;;;5096321;28;20297;-63
2023/08/13 11:15:11;;;;;;;2.58;2.38;;;;;;;;;;5096366;28;20622;-62
2023/08/13 11:17:38;;;;;;;2.53;2.35;;;;;;;;;;5096304;28;20299;-64
2023/08/13 11:20:07;;;;;;;2.67;2.47;;;;;;;;;;5096176;28;20235;-63
2023/08/13 11:22:36;;;;;;;2.63;2.42;;;;;;;;;;5096484;28;20204;-63
2023/08/13 11:25:03;;;;;;;2.75;2.55;;;;;;;;;;5096240;28;20200;-63
2023/08/13 11:27:31;;;;;;;2.63;2.42;;;;;;;;;;5095814;28;20235;-62
2023/08/13 11:29:59;;;;;;;2.67;2.47;;;;;;;;;;5097481;28;20222;-63
2023/08/13 11:32:27;;;;;;;2.90;2.70;;;;;;;;;;5099550;28;20196;-63
2023/08/13 11:34:54;;;;;;;2.90;2.60;;;;;;;;;;5099426;28;20326;-64
2023/08/13 11:37:22;;;;;;;2.65;2.50;;;;;;;;;;5099039;28;20294;-63
2023/08/13 11:39:51;;;;;;;3.05;2.75;;;;;;;;;;5099250;28;20212;-63
2023/08/13 11:42:18;;;;;;;2.90;2.70;;;;;;;;;;5098611;28;20204;-64
2023/08/13 11:44:49;;;;;;;3.00;2.80;;;;;;;;;;5098469;28;20253;-63
2023/08/13 11:47:25;;;;;;;3.08;2.88;;;;;;;;;;5098442;28;20651;-62
2023/08/13 11:49:54;;;;;;;2.78;2.58;;;;;;;;;;5097689;28;20241;-63
2023/08/13 11:52:22;;;;;;;3.00;2.80;;;;;;;;;;5097892;28;20231;-63
2023/08/13 11:54:52;;;;;;;3.00;2.80;;;;;;;;;;5097615;28;20227;-63
2023/08/13 11:57:20;;;;;;;3.05;2.85;;;;;;;;;;5098866;28;20203;-62
2023/08/13 11:59:49;;;;;;;2.92;2.72;;;;;;;;;;5098410;28;20640;-62
2023/08/13 12:02:17;;;;;;;3.00;2.80;;;;;;;;;;5097557;28;20204;-62
2023/08/13 12:04:48;;;;;;;2.92;2.72;;;;;;;;;;5097713;28;20210;-63
2023/08/13 12:07:17;;;;;;;2.78;2.58;;;;;;;;;;5097665;28;20237;-63
2023/08/13 12:09:44;;;;;;;3.05;2.85;;;;;;;;;;5098502;28;20225;-63
2023/08/13 12:12:14;;;;;;;3.28;3.08;;;;;;;;;;5098445;28;20294;-63
2023/08/13 12:14:45;;;;;;;3.10;2.90;;;;;;;;;;5098141;28;20234;-62
2023/08/13 12:17:12;;;;;;;3.40;3.10;;;;;;;;;;5098037;28;20204;-62
2023/08/13 12:19:40;;;;;;;3.10;2.90;;;;;;;;;;5098491;28;20207;-63
2023/08/13 12:22:07;;;;;;;2.90;2.70;;;;;;;;;;5097444;28;20298;-62
2023/08/13 12:24:35;;;;;;;3.33;3.13;;;;;;;;;;5097485;28;20206;-62
2023/08/13 12:27:02;;;;;;;2.92;2.72;;;;;;;;;;5097922;28;20335;-63
2023/08/13 12:29:31;;;;;;;3.10;2.90;;;;;;;;;;5097026;28;20210;-63
2023/08/13 12:31:59;;;;;;;2.80;2.60;;;;;;;;;;5097428;28;20656;-63
2023/08/13 12:34:26;;;;;;;3.00;2.80;;;;;;;;;;5097884;28;20314;-63
2023/08/13 12:36:54;;;;;;;3.15;2.95;;;;;;;;;;5096953;28;20295;-63
2023/08/13 12:39:21;;;;;;;2.92;2.70;;;;;;;;;;5097723;28;20203;-63
2023/08/13 12:41:48;;;;;;;2.88;2.67;;;;;;;;;;5095797;28;20214;-63
2023/08/13 12:44:16;;;;;;;3.00;2.80;;;;;;;;;;5097389;28;20200;-63
2023/08/13 12:46:45;;;;;;;3.17;2.97;;;;;;;;;;5097187;28;20661;-63
2023/08/13 12:49:12;;;;;;;3.10;2.80;;;;;;;;;;5098165;28;20299;-63
2023/08/13 12:51:39;;;;;;;2.78;2.58;;;;;;;;;;5098075;28;20292;-63
2023/08/13 12:54:07;;;;;;;3.42;2.88;;;;;;;;;;5097293;28;20622;-63
2023/08/13 12:56:35;;;;;;;2.80;2.60;;;;;;;;;;5097006;28;20204;-63
2023/08/13 12:59:02;;;;;;;3.00;2.80;;;;;;;;;;5097673;28;20204;-63
2023/08/13 13:01:29;;;;;;;2.60;2.40;;;;;;;;;;5097213;28;20317;-63
2023/08/13 13:03:58;;;;;;;2.92;2.72;;;;;;;;;;5096691;28;20298;-63
2023/08/13 13:06:26;;;;;;;2.78;2.60;;;;;;;;;;5096586;28;20210;-63
2023/08/13 13:08:53;;;;;;;3.00;2.80;;;;;;;;;;5096801;28;20607;-63
2023/08/13 13:11:21;;;;;;;3.00;2.80;;;;;;;;;;5097073;28;20780;-63
2023/08/13 13:13:48;;;;;;;2.90;2.70;;;;;;;;;;5097442;28;20230;-63
2023/08/13 13:16:15;;;;;;;3.00;2.80;;;;;;;;;;5096832;28;20259;-63
2023/08/13 13:18:43;;;;;;;2.67;2.47;;;;;;;;;;5097001;28;20206;-63
2023/08/13 13:21:13;;;;;;;2.75;2.55;;;;;;;;;;5096633;28;20215;-63
2023/08/13 13:23:40;;;;;;;2.97;2.78;;;;;;;;;;5096684;28;20226;-63
2023/08/13 13:26:08;;;;;;;3.20;3.00;;;;;;;;;;5097110;28;20531;-63
2023/08/13 13:28:35;;;;;;;2.63;2.42;;;;;;;;;;5096535;28;20204;-63
2023/08/13 13:31:03;;;;;;;2.95;2.75;;;;;;;;;;5096112;28;20253;-63
2023/08/13 13:33:31;;;;;;;2.85;2.65;;;;;;;;;;5096727;28;20219;-62
2023/08/13 13:35:58;;;;;;;2.72;2.53;;;;;;;;;;5096628;28;20233;-63
2023/08/13 13:38:27;;;;;;;2.80;2.60;;;;;;;;;;5096650;28;20323;-63
2023/08/13 13:40:54;;;;;;;2.58;2.38;;;;;;;;;;5096894;28;20294;-63
2023/08/13 13:43:22;;;;;;;2.55;2.45;;;;;;;;;;5095867;28;20286;-63
2023/08/13 13:45:49;;;;;;;2.83;2.58;;;;;;;;;;5096134;28;20210;-62
2023/08/13 13:48:16;;;;;;;2.60;2.40;;;;;;;;;;5096093;28;20406;-63
2023/08/13 13:50:44;;;;;;;2.80;2.60;;;;;;;;;;5095460;28;20203;-63
2023/08/13 13:53:11;;;;;;;3.13;2.92;;;;;;;;;;5094138;28;20238;-63
2023/08/13 13:55:40;;;;;;;2.60;2.40;;;;;;;;;;5096036;28;20227;-63
2023/08/13 13:58:08;;;;;;;3.13;2.75;;;;;;;;;;5095914;28;20243;-63
2023/08/13 14:00:36;;;;;;;2.58;2.47;;;;;;;;;;5096139;28;20211;-63
2023/08/13 14:03:03;;;;;;;2.60;2.40;;;;;;;;;;5095941;28;20204;-63
2023/08/13 14:05:31;;;;;;;2.58;2.38;;;;;;;;;;5096003;28;20200;-62
2023/08/13 14:07:58;;;;;;;2.72;2.53;;;;;;;;;;5095558;28;20203;-63
2023/08/13 14:10:26;;;;;;;2.80;2.60;;;;;;;;;;5095451;28;20209;-63
2023/08/13 14:12:54;;;;;;;2.97;2.70;;;;;;;;;;5095878;28;20203;-65
2023/08/13 14:15:22;;;;;;;3.08;2.70;;;;;;;;;;5096695;28;20263;-63
2023/08/13 14:17:50;;;;;;;2.90;2.70;;;;;;;;;;5095581;28;20304;-63
2023/08/13 14:20:17;;;;;;;2.90;2.70;;;;;;;;;;5095640;28;20576;-63
2023/08/13 14:22:44;;;;;;;2.70;2.50;;;;;;;;;;5094756;28;20487;-63
2023/08/13 14:25:12;;;;;;;2.90;2.63;;;;;;;;;;5096332;28;20209;-63
2023/08/13 14:27:39;;;;;;;2.60;2.40;;;;;;;;;;5096260;28;20306;-63
2023/08/13 14:30:09;;;;;;;2.63;2.42;;;;;;;;;;5096150;28;20235;-63
2023/08/13 14:32:39;;;;;;;2.70;2.50;;;;;;;;;;5096702;28;20629;-63
2023/08/13 14:35:06;;;;;;;3.10;2.75;;;;;;;;;;5095676;28;20220;-63
2023/08/13 14:37:34;;;;;;;2.85;2.65;;;;;;;;;;5095957;28;20260;-63
2023/08/13 14:40:01;;;;;;;2.80;2.60;;;;;;;;;;5096623;28;20204;-63
2023/08/13 14:42:29;;;;;;;3.00;2.70;;;;;;;;;;5095758;28;20594;-63
2023/08/13 14:44:56;;;;;;;2.80;2.60;;;;;;;;;;5096122;28;20501;-63
2023/08/13 14:47:25;;;;;;;3.25;2.95;;;;;;;;;;5096570;28;20199;-63